KDAA/DAA METAR and TAF weather

Enter ICAO airport designator
Station Type Date Time Source
KDAA METAR 2018/12/12 22:56 UTC NOAA

KDAA 122256Z AUTO 18003KT 10SM SCT120 BKN140 05/M05 A3020 RMK AO2 SLP231 T00491049 TSNO $


Station Type Date Time Source
KDAA Decoded METAR 2018/12/12 22:56 UTC NOAA

Fort Belvoir, VA, United States (KDAA) 38-43N 077-11W
Dec 12, 2018 - 05:56 PM EST / 2018.12.12 2256 UTC
Wind: from the S (180 degrees) at 3 MPH (3 KT):0
Visibility: 10 mile(s):0
Sky conditions: mostly cloudy
Temperature: 40.8 F (4.9 C)
Dew Point: 23.2 F (-4.9 C)
Relative Humidity: 49%
Pressure (altimeter): 30.2 in. Hg (1022 hPa)
ob: KDAA 122256Z AUTO 18003KT 10SM SCT120 BKN140 05/M05 A3020 RMK AO2 SLP231 T00491049 TSNO
cycle: 23

Station Type Date Time Source
KDAA TAF 2018/12/12 18:12 UTC NOAA

TAF KDAA 121800Z 1218/1324 25009KT 9999 BKN150 QNH3016INS WND 15009KT AFT 1221
BECMG 1305/1306 16009KT 9999 BKN060 620702 QNH3017INS
BECMG 1311/1312 16009KT 9999 BKN025 620502 QNH3022INS TX07/1218Z TNM03/1308Z


Example: see airport list